Archival Weather

Heathrow

London, United Kingdom (EGLL)

Report from: Tuesday, September 19, 2023 4:20 AM BST
Current time: Wednesday, December 6, 2023 7:28 AM GMT

Current weather – Weather history – Daily summaries
Weather forecast

Temperature14.0°C (57.2°F)
Dew point10.0°C (50.0°F)
Winds 10 kts (5.1 m/s, 11.5 mph) Southwest (220°)
Visibility6.2 mi. (10 km)
Clouds Sky clear
Altimeter29.77 in.Hg (1008 mB)
Relative humidity77 %
Density altitude233 ft. (71 m)
Remarks Fully automated report
No clouds detected
No significant changes expected in the next two hours
Flight conditions Visual Meteorological Conditions
Raw dataEGLL 190320Z AUTO 22010KT 9999 NCD 14/10 Q1008 NOSIG
An error has occurred. This application may no longer respond until reloaded. Reload 🗙